sensor_id;sensor_type;location;lat;lon;timestamp;P1;durP1;ratioP1;P2;durP2;ratioP2
77522;SDS011;66637;-29.628;-49.938;2024-01-15T00:00:39;0.00;;;0.00;;
77522;SDS011;66637;-29.628;-49.938;2024-01-15T00:03:17;0.03;;;0.03;;
77522;SDS011;66637;-29.628;-49.938;2024-01-15T00:06:01;0.03;;;0.03;;
77522;SDS011;66637;-29.628;-49.938;2024-01-15T00:08:31;0.00;;;0.00;;
77522;SDS011;66637;-29.628;-49.938;2024-01-15T00:11:04;0.20;;;0.20;;
77522;SDS011;66637;-29.628;-49.938;2024-01-15T00:13:39;0.00;;;0.00;;
77522;SDS011;66637;-29.628;-49.938;2024-01-15T00:16:12;0.00;;;0.00;;
77522;SDS011;66637;-29.628;-49.938;2024-01-15T00:19:06;0.00;;;0.00;;
77522;SDS011;66637;-29.628;-49.938;2024-01-15T00:22:42;0.00;;;0.00;;
77522;SDS011;66637;-29.628;-49.938;2024-01-15T00:25:41;0.00;;;0.00;;
77522;SDS011;66637;-29.628;-49.938;2024-01-15T00:28:21;0.00;;;0.00;;
77522;SDS011;66637;-29.628;-49.938;2024-01-15T00:31:06;0.20;;;0.20;;
77522;SDS011;66637;-29.628;-49.938;2024-01-15T00:33:43;0.40;;;0.40;;
77522;SDS011;66637;-29.628;-49.938;2024-01-15T00:36:18;0.25;;;0.25;;
77522;SDS011;66637;-29.628;-49.938;2024-01-15T00:38:54;0.00;;;0.00;;
77522;SDS011;66637;-29.628;-49.938;2024-01-15T00:41:35;0.03;;;0.03;;
77522;SDS011;66637;-29.628;-49.938;2024-01-15T00:44:42;0.00;;;0.00;;
77522;SDS011;66637;-29.628;-49.938;2024-01-15T00:47:39;0.00;;;0.00;;
77522;SDS011;66637;-29.628;-49.938;2024-01-15T00:50:16;0.30;;;0.30;;
77522;SDS011;66637;-29.628;-49.938;2024-01-15T00:53:08;0.13;;;0.13;;
77522;SDS011;66637;-29.628;-49.938;2024-01-15T00:56:06;0.00;;;0.00;;
77522;SDS011;66637;-29.628;-49.938;2024-01-15T00:58:55;0.00;;;0.00;;
77522;SDS011;66637;-29.628;-49.938;2024-01-15T01:01:27;0.00;;;0.00;;
77522;SDS011;66637;-29.628;-49.938;2024-01-15T01:04:01;0.13;;;0.08;;
77522;SDS011;66637;-29.628;-49.938;2024-01-15T01:06:32;0.00;;;0.00;;
77522;SDS011;66637;-29.628;-49.938;2024-01-15T01:09:20;1.30;;;0.30;;
77522;SDS011;66637;-29.628;-49.938;2024-01-15T01:12:28;0.03;;;0.03;;
77522;SDS011;66637;-29.628;-49.938;2024-01-15T01:15:15;0.22;;;0.22;;
77522;SDS011;66637;-29.628;-49.938;2024-01-15T01:17:48;0.00;;;0.00;;
77522;SDS011;66637;-29.628;-49.938;2024-01-15T01:20:20;0.20;;;0.20;;
77522;SDS011;66637;-29.628;-49.938;2024-01-15T01:22:51;0.05;;;0.05;;
77522;SDS011;66637;-29.628;-49.938;2024-01-15T01:25:22;0.30;;;0.30;;
77522;SDS011;66637;-29.628;-49.938;2024-01-15T01:27:53;0.00;;;0.00;;
77522;SDS011;66637;-29.628;-49.938;2024-01-15T01:30:31;0.47;;;0.47;;
77522;SDS011;66637;-29.628;-49.938;2024-01-15T01:33:03;0.38;;;0.38;;
77522;SDS011;66637;-29.628;-49.938;2024-01-15T01:35:44;0.32;;;0.32;;
77522;SDS011;66637;-29.628;-49.938;2024-01-15T01:38:26;0.20;;;0.20;;
77522;SDS011;66637;-29.628;-49.938;2024-01-15T01:41:05;0.00;;;0.00;;
77522;SDS011;66637;-29.628;-49.938;2024-01-15T01:43:58;0.20;;;0.20;;
77522;SDS011;66637;-29.628;-49.938;2024-01-15T01:49:42;0.52;;;0.52;;
77522;SDS011;66637;-29.628;-49.938;2024-01-15T01:52:36;0.00;;;0.00;;
77522;SDS011;66637;-29.628;-49.938;2024-01-15T01:55:49;0.25;;;0.25;;
77522;SDS011;66637;-29.628;-49.938;2024-01-15T01:58:39;0.22;;;0.20;;
77522;SDS011;66637;-29.628;-49.938;2024-01-15T02:01:29;0.10;;;0.10;;
77522;SDS011;66637;-29.628;-49.938;2024-01-15T02:04:13;0.22;;;0.10;;
77522;SDS011;66637;-29.628;-49.938;2024-01-15T02:07:03;0.00;;;0.00;;
77522;SDS011;66637;-29.628;-49.938;2024-01-15T02:09:37;0.10;;;0.10;;
77522;SDS011;66637;-29.628;-49.938;2024-01-15T02:12:19;0.20;;;0.20;;
77522;SDS011;66637;-29.628;-49.938;2024-01-15T02:15:03;0.10;;;0.00;;
77522;SDS011;66637;-29.628;-49.938;2024-01-15T02:17:58;0.00;;;0.00;;
77522;SDS011;66637;-29.628;-49.938;2024-01-15T02:20:38;0.00;;;0.00;;
77522;SDS011;66637;-29.628;-49.938;2024-01-15T02:23:15;0.00;;;0.00;;
77522;SDS011;66637;-29.628;-49.938;2024-01-15T02:25:48;0.00;;;0.00;;
77522;SDS011;66637;-29.628;-49.938;2024-01-15T02:28:19;0.00;;;0.00;;
77522;SDS011;66637;-29.628;-49.938;2024-01-15T02:30:55;0.13;;;0.13;;
77522;SDS011;66637;-29.628;-49.938;2024-01-15T02:33:28;0.00;;;0.00;;
77522;SDS011;66637;-29.628;-49.938;2024-01-15T02:36:00;0.00;;;0.00;;
77522;SDS011;66637;-29.628;-49.938;2024-01-15T02:38:32;0.00;;;0.00;;
77522;SDS011;66637;-29.628;-49.938;2024-01-15T02:41:04;0.00;;;0.00;;
77522;SDS011;66637;-29.628;-49.938;2024-01-15T02:43:36;0.00;;;0.00;;
77522;SDS011;66637;-29.628;-49.938;2024-01-15T02:46:07;0.00;;;0.00;;
77522;SDS011;66637;-29.628;-49.938;2024-01-15T02:48:37;0.00;;;0.00;;
77522;SDS011;66637;-29.628;-49.938;2024-01-15T02:51:07;0.00;;;0.00;;
77522;SDS011;66637;-29.628;-49.938;2024-01-15T02:53:38;0.00;;;0.00;;
77522;SDS011;66637;-29.628;-49.938;2024-01-15T02:56:09;0.00;;;0.00;;
77522;SDS011;66637;-29.628;-49.938;2024-01-15T02:58:41;0.00;;;0.00;;
77522;SDS011;66637;-29.628;-49.938;2024-01-15T03:01:11;0.65;;;0.65;;
77522;SDS011;66637;-29.628;-49.938;2024-01-15T03:03:42;0.00;;;0.00;;
77522;SDS011;66637;-29.628;-49.938;2024-01-15T03:08:48;0.00;;;0.00;;
77522;SDS011;66637;-29.628;-49.938;2024-01-15T03:13:55;0.00;;;0.00;;
77522;SDS011;66637;-29.628;-49.938;2024-01-15T03:16:27;0.00;;;0.00;;
77522;SDS011;66637;-29.628;-49.938;2024-01-15T03:18:58;0.00;;;0.00;;
77522;SDS011;66637;-29.628;-49.938;2024-01-15T03:21:30;0.00;;;0.00;;
77522;SDS011;66637;-29.628;-49.938;2024-01-15T03:24:00;0.00;;;0.00;;
77522;SDS011;66637;-29.628;-49.938;2024-01-15T03:26:30;0.00;;;0.00;;
77522;SDS011;66637;-29.628;-49.938;2024-01-15T03:29:00;0.00;;;0.00;;
77522;SDS011;66637;-29.628;-49.938;2024-01-15T03:31:31;0.10;;;0.10;;
77522;SDS011;66637;-29.628;-49.938;2024-01-15T03:34:01;0.00;;;0.00;;
77522;SDS011;66637;-29.628;-49.938;2024-01-15T03:36:33;0.00;;;0.00;;
77522;SDS011;66637;-29.628;-49.938;2024-01-15T03:39:05;0.00;;;0.00;;
77522;SDS011;66637;-29.628;-49.938;2024-01-15T03:41:37;0.00;;;0.00;;
77522;SDS011;66637;-29.628;-49.938;2024-01-15T03:44:10;0.00;;;0.00;;
77522;SDS011;66637;-29.628;-49.938;2024-01-15T03:46:44;0.00;;;0.00;;
77522;SDS011;66637;-29.628;-49.938;2024-01-15T03:49:17;0.00;;;0.00;;
77522;SDS011;66637;-29.628;-49.938;2024-01-15T03:51:48;0.00;;;0.00;;
77522;SDS011;66637;-29.628;-49.938;2024-01-15T03:54:25;0.00;;;0.00;;
77522;SDS011;66637;-29.628;-49.938;2024-01-15T03:56:59;0.00;;;0.00;;
77522;SDS011;66637;-29.628;-49.938;2024-01-15T03:59:36;0.00;;;0.00;;
77522;SDS011;66637;-29.628;-49.938;2024-01-15T04:02:57;0.00;;;0.00;;
77522;SDS011;66637;-29.628;-49.938;2024-01-15T04:05:41;0.00;;;0.00;;
77522;SDS011;66637;-29.628;-49.938;2024-01-15T04:08:19;0.00;;;0.00;;
77522;SDS011;66637;-29.628;-49.938;2024-01-15T04:10:56;0.00;;;0.00;;
77522;SDS011;66637;-29.628;-49.938;2024-01-15T04:13:34;0.00;;;0.00;;
77522;SDS011;66637;-29.628;-49.938;2024-01-15T04:16:18;0.00;;;0.00;;
77522;SDS011;66637;-29.628;-49.938;2024-01-15T04:18:53;0.00;;;0.00;;
77522;SDS011;66637;-29.628;-49.938;2024-01-15T04:21:24;0.00;;;0.00;;
77522;SDS011;66637;-29.628;-49.938;2024-01-15T04:23:57;0.40;;;0.40;;
77522;SDS011;66637;-29.628;-49.938;2024-01-15T04:26:31;0.00;;;0.00;;
77522;SDS011;66637;-29.628;-49.938;2024-01-15T04:29:05;0.00;;;0.00;;
77522;SDS011;66637;-29.628;-49.938;2024-01-15T04:31:40;0.00;;;0.00;;
77522;SDS011;66637;-29.628;-49.938;2024-01-15T04:34:13;0.00;;;0.00;;
77522;SDS011;66637;-29.628;-49.938;2024-01-15T04:36:45;0.00;;;0.00;;
77522;SDS011;66637;-29.628;-49.938;2024-01-15T04:39:16;0.00;;;0.00;;
77522;SDS011;66637;-29.628;-49.938;2024-01-15T04:41:47;0.00;;;0.00;;
77522;SDS011;66637;-29.628;-49.938;2024-01-15T04:44:18;0.00;;;0.00;;
77522;SDS011;66637;-29.628;-49.938;2024-01-15T04:46:50;0.00;;;0.00;;
77522;SDS011;66637;-29.628;-49.938;2024-01-15T04:49:22;0.00;;;0.00;;
77522;SDS011;66637;-29.628;-49.938;2024-01-15T04:51:56;0.00;;;0.00;;
77522;SDS011;66637;-29.628;-49.938;2024-01-15T04:54:26;0.00;;;0.00;;
77522;SDS011;66637;-29.628;-49.938;2024-01-15T04:56:58;0.00;;;0.00;;
77522;SDS011;66637;-29.628;-49.938;2024-01-15T04:59:29;0.25;;;0.25;;
77522;SDS011;66637;-29.628;-49.938;2024-01-15T05:02:00;2.20;;;0.60;;
77522;SDS011;66637;-29.628;-49.938;2024-01-15T05:04:30;2.05;;;0.70;;
77522;SDS011;66637;-29.628;-49.938;2024-01-15T05:07:03;2.72;;;0.70;;
77522;SDS011;66637;-29.628;-49.938;2024-01-15T05:09:34;2.28;;;0.70;;
77522;SDS011;66637;-29.628;-49.938;2024-01-15T05:12:05;3.75;;;0.75;;
77522;SDS011;66637;-29.628;-49.938;2024-01-15T05:14:37;2.90;;;0.88;;
77522;SDS011;66637;-29.628;-49.938;2024-01-15T05:17:07;1.60;;;0.80;;
77522;SDS011;66637;-29.628;-49.938;2024-01-15T05:19:39;1.55;;;0.75;;
77522;SDS011;66637;-29.628;-49.938;2024-01-15T05:22:10;6.95;;;0.98;;
77522;SDS011;66637;-29.628;-49.938;2024-01-15T05:24:42;1.90;;;0.88;;
77522;SDS011;66637;-29.628;-49.938;2024-01-15T05:27:14;2.47;;;0.98;;
77522;SDS011;66637;-29.628;-49.938;2024-01-15T05:29:59;4.53;;;0.88;;
77522;SDS011;66637;-29.628;-49.938;2024-01-15T05:32:40;4.70;;;1.00;;
77522;SDS011;66637;-29.628;-49.938;2024-01-15T05:35:12;2.00;;;0.98;;
77522;SDS011;66637;-29.628;-49.938;2024-01-15T05:37:43;2.85;;;0.90;;
77522;SDS011;66637;-29.628;-49.938;2024-01-15T05:43:01;2.35;;;0.93;;
77522;SDS011;66637;-29.628;-49.938;2024-01-15T05:45:31;4.03;;;0.90;;
77522;SDS011;66637;-29.628;-49.938;2024-01-15T05:48:10;3.28;;;0.80;;
77522;SDS011;66637;-29.628;-49.938;2024-01-15T05:50:48;3.45;;;0.85;;
77522;SDS011;66637;-29.628;-49.938;2024-01-15T05:53:23;1.77;;;0.70;;
77522;SDS011;66637;-29.628;-49.938;2024-01-15T05:55:56;1.45;;;0.82;;
77522;SDS011;66637;-29.628;-49.938;2024-01-15T05:58:31;3.88;;;0.63;;
77522;SDS011;66637;-29.628;-49.938;2024-01-15T06:01:09;2.63;;;0.70;;
77522;SDS011;66637;-29.628;-49.938;2024-01-15T06:03:47;1.42;;;0.80;;
77522;SDS011;66637;-29.628;-49.938;2024-01-15T06:06:21;2.85;;;0.60;;
77522;SDS011;66637;-29.628;-49.938;2024-01-15T06:08:59;1.95;;;0.50;;
77522;SDS011;66637;-29.628;-49.938;2024-01-15T06:14:03;3.35;;;0.50;;
77522;SDS011;66637;-29.628;-49.938;2024-01-15T06:16:37;2.95;;;0.63;;
77522;SDS011;66637;-29.628;-49.938;2024-01-15T06:19:07;3.08;;;0.60;;
77522;SDS011;66637;-29.628;-49.938;2024-01-15T06:21:38;3.60;;;0.47;;
77522;SDS011;66637;-29.628;-49.938;2024-01-15T06:24:10;3.65;;;0.60;;
77522;SDS011;66637;-29.628;-49.938;2024-01-15T06:26:42;2.83;;;0.65;;
77522;SDS011;66637;-29.628;-49.938;2024-01-15T06:29:14;1.30;;;0.57;;
77522;SDS011;66637;-29.628;-49.938;2024-01-15T06:31:49;2.63;;;0.40;;
77522;SDS011;66637;-29.628;-49.938;2024-01-15T06:34:20;2.65;;;0.63;;
77522;SDS011;66637;-29.628;-49.938;2024-01-15T06:37:00;1.40;;;0.40;;
77522;SDS011;66637;-29.628;-49.938;2024-01-15T06:39:32;1.17;;;0.40;;
77522;SDS011;66637;-29.628;-49.938;2024-01-15T06:42:02;1.60;;;0.50;;
77522;SDS011;66637;-29.628;-49.938;2024-01-15T06:44:34;1.42;;;0.65;;
77522;SDS011;66637;-29.628;-49.938;2024-01-15T06:47:05;2.15;;;0.40;;
77522;SDS011;66637;-29.628;-49.938;2024-01-15T06:49:36;2.17;;;0.40;;
77522;SDS011;66637;-29.628;-49.938;2024-01-15T06:52:07;3.35;;;0.40;;
77522;SDS011;66637;-29.628;-49.938;2024-01-15T06:54:37;1.15;;;0.28;;
77522;SDS011;66637;-29.628;-49.938;2024-01-15T06:57:08;3.05;;;0.52;;
77522;SDS011;66637;-29.628;-49.938;2024-01-15T06:59:38;1.58;;;0.40;;
77522;SDS011;66637;-29.628;-49.938;2024-01-15T07:02:08;1.15;;;0.40;;
77522;SDS011;66637;-29.628;-49.938;2024-01-15T07:04:39;2.05;;;0.40;;
77522;SDS011;66637;-29.628;-49.938;2024-01-15T07:07:11;2.55;;;0.50;;
77522;SDS011;66637;-29.628;-49.938;2024-01-15T07:09:41;2.40;;;0.52;;
77522;SDS011;66637;-29.628;-49.938;2024-01-15T07:12:11;3.53;;;0.40;;
77522;SDS011;66637;-29.628;-49.938;2024-01-15T07:14:43;2.38;;;0.50;;
77522;SDS011;66637;-29.628;-49.938;2024-01-15T07:20:59;3.50;;;0.38;;
77522;SDS011;66637;-29.628;-49.938;2024-01-15T07:23:31;2.03;;;0.43;;
77522;SDS011;66637;-29.628;-49.938;2024-01-15T07:26:01;0.88;;;0.40;;
77522;SDS011;66637;-29.628;-49.938;2024-01-15T07:28:31;1.75;;;0.30;;
77522;SDS011;66637;-29.628;-49.938;2024-01-15T07:31:02;2.38;;;0.45;;
77522;SDS011;66637;-29.628;-49.938;2024-01-15T07:33:33;2.40;;;0.50;;
77522;SDS011;66637;-29.628;-49.938;2024-01-15T07:36:05;1.10;;;0.40;;
77522;SDS011;66637;-29.628;-49.938;2024-01-15T07:38:35;3.20;;;0.40;;
77522;SDS011;66637;-29.628;-49.938;2024-01-15T07:41:06;0.40;;;0.30;;
77522;SDS011;66637;-29.628;-49.938;2024-01-15T07:43:38;2.17;;;0.40;;
77522;SDS011;66637;-29.628;-49.938;2024-01-15T07:46:09;2.53;;;0.30;;
77522;SDS011;66637;-29.628;-49.938;2024-01-15T07:48:39;3.80;;;0.40;;
77522;SDS011;66637;-29.628;-49.938;2024-01-15T07:51:09;3.45;;;0.50;;
77522;SDS011;66637;-29.628;-49.938;2024-01-15T07:53:41;1.95;;;0.40;;
77522;SDS011;66637;-29.628;-49.938;2024-01-15T07:56:11;1.13;;;0.30;;
77522;SDS011;66637;-29.628;-49.938;2024-01-15T07:58:43;2.80;;;0.38;;
77522;SDS011;66637;-29.628;-49.938;2024-01-15T08:01:14;1.88;;;0.40;;
77522;SDS011;66637;-29.628;-49.938;2024-01-15T08:03:45;1.08;;;0.40;;
77522;SDS011;66637;-29.628;-49.938;2024-01-15T08:06:16;0.63;;;0.30;;
77522;SDS011;66637;-29.628;-49.938;2024-01-15T08:08:48;2.22;;;0.50;;
77522;SDS011;66637;-29.628;-49.938;2024-01-15T08:11:19;2.55;;;0.40;;
77522;SDS011;66637;-29.628;-49.938;2024-01-15T08:13:50;3.88;;;0.30;;
77522;SDS011;66637;-29.628;-49.938;2024-01-15T08:16:21;2.30;;;0.40;;
77522;SDS011;66637;-29.628;-49.938;2024-01-15T08:18:55;2.30;;;0.50;;
77522;SDS011;66637;-29.628;-49.938;2024-01-15T08:21:36;2.85;;;0.30;;
77522;SDS011;66637;-29.628;-49.938;2024-01-15T08:24:07;0.77;;;0.40;;
77522;SDS011;66637;-29.628;-49.938;2024-01-15T08:26:39;1.38;;;0.40;;
77522;SDS011;66637;-29.628;-49.938;2024-01-15T08:29:10;3.63;;;0.50;;
77522;SDS011;66637;-29.628;-49.938;2024-01-15T08:31:41;2.63;;;0.40;;
77522;SDS011;66637;-29.628;-49.938;2024-01-15T08:34:14;2.95;;;0.40;;
77522;SDS011;66637;-29.628;-49.938;2024-01-15T08:36:44;3.47;;;0.40;;
77522;SDS011;66637;-29.628;-49.938;2024-01-15T08:39:16;2.15;;;0.40;;
77522;SDS011;66637;-29.628;-49.938;2024-01-15T08:41:49;1.58;;;0.40;;
77522;SDS011;66637;-29.628;-49.938;2024-01-15T08:44:20;1.33;;;0.30;;
77522;SDS011;66637;-29.628;-49.938;2024-01-15T08:46:51;4.75;;;0.43;;
77522;SDS011;66637;-29.628;-49.938;2024-01-15T08:49:21;1.98;;;0.40;;
77522;SDS011;66637;-29.628;-49.938;2024-01-15T08:51:52;3.10;;;0.45;;
77522;SDS011;66637;-29.628;-49.938;2024-01-15T08:54:22;3.25;;;0.40;;
77522;SDS011;66637;-29.628;-49.938;2024-01-15T08:56:53;5.20;;;0.30;;
77522;SDS011;66637;-29.628;-49.938;2024-01-15T08:59:24;3.25;;;0.50;;
77522;SDS011;66637;-29.628;-49.938;2024-01-15T09:01:54;2.22;;;0.30;;
77522;SDS011;66637;-29.628;-49.938;2024-01-15T09:04:26;3.13;;;0.60;;
77522;SDS011;66637;-29.628;-49.938;2024-01-15T09:06:56;2.45;;;0.70;;
77522;SDS011;66637;-29.628;-49.938;2024-01-15T09:09:26;49.75;;;5.90;;
77522;SDS011;66637;-29.628;-49.938;2024-01-15T09:11:57;91.93;;;10.05;;
77522;SDS011;66637;-29.628;-49.938;2024-01-15T09:14:27;57.53;;;7.35;;
77522;SDS011;66637;-29.628;-49.938;2024-01-15T09:17:04;56.67;;;6.13;;
77522;SDS011;66637;-29.628;-49.938;2024-01-15T09:19:34;25.02;;;3.63;;
77522;SDS011;66637;-29.628;-49.938;2024-01-15T09:22:05;21.33;;;2.22;;
77522;SDS011;66637;-29.628;-49.938;2024-01-15T09:24:37;21.88;;;3.00;;
77522;SDS011;66637;-29.628;-49.938;2024-01-15T09:27:10;13.65;;;2.28;;
77522;SDS011;66637;-29.628;-49.938;2024-01-15T09:29:41;9.45;;;1.20;;
77522;SDS011;66637;-29.628;-49.938;2024-01-15T09:34:50;5.70;;;0.60;;
77522;SDS011;66637;-29.628;-49.938;2024-01-15T09:37:23;3.28;;;0.40;;
77522;SDS011;66637;-29.628;-49.938;2024-01-15T09:43:33;0.80;;;0.40;;
77522;SDS011;66637;-29.628;-49.938;2024-01-15T09:46:04;85.10;;;9.77;;
77522;SDS011;66637;-29.628;-49.938;2024-01-15T09:48:36;95.15;;;12.05;;
77522;SDS011;66637;-29.628;-49.938;2024-01-15T09:51:09;49.90;;;6.45;;
77522;SDS011;66637;-29.628;-49.938;2024-01-15T09:53:42;61.97;;;7.82;;
77522;SDS011;66637;-29.628;-49.938;2024-01-15T09:56:14;70.65;;;8.60;;
77522;SDS011;66637;-29.628;-49.938;2024-01-15T10:01:52;49.05;;;5.82;;
77522;SDS011;66637;-29.628;-49.938;2024-01-15T10:04:27;85.63;;;11.52;;
77522;SDS011;66637;-29.628;-49.938;2024-01-15T10:06:57;49.08;;;5.55;;
77522;SDS011;66637;-29.628;-49.938;2024-01-15T10:09:30;16.17;;;2.60;;
77522;SDS011;66637;-29.628;-49.938;2024-01-15T10:12:02;17.90;;;1.88;;
77522;SDS011;66637;-29.628;-49.938;2024-01-15T10:14:34;22.65;;;2.60;;
77522;SDS011;66637;-29.628;-49.938;2024-01-15T10:17:13;51.83;;;5.90;;
77522;SDS011;66637;-29.628;-49.938;2024-01-15T10:19:45;55.33;;;6.85;;
77522;SDS011;66637;-29.628;-49.938;2024-01-15T10:22:18;48.83;;;5.55;;
77522;SDS011;66637;-29.628;-49.938;2024-01-15T10:24:49;82.22;;;10.40;;
77522;SDS011;66637;-29.628;-49.938;2024-01-15T10:27:19;108.90;;;12.60;;
77522;SDS011;66637;-29.628;-49.938;2024-01-15T10:33:25;47.30;;;5.30;;
77522;SDS011;66637;-29.628;-49.938;2024-01-15T10:35:57;49.22;;;6.05;;
77522;SDS011;66637;-29.628;-49.938;2024-01-15T10:42:57;57.03;;;6.22;;
77522;SDS011;66637;-29.628;-49.938;2024-01-15T10:45:27;67.00;;;7.47;;
77522;SDS011;66637;-29.628;-49.938;2024-01-15T10:47:59;97.32;;;11.23;;
77522;SDS011;66637;-29.628;-49.938;2024-01-15T10:50:31;109.82;;;12.30;;
77522;SDS011;66637;-29.628;-49.938;2024-01-15T10:53:04;81.22;;;8.68;;
77522;SDS011;66637;-29.628;-49.938;2024-01-15T10:55:36;38.85;;;5.35;;
77522;SDS011;66637;-29.628;-49.938;2024-01-15T10:58:11;79.43;;;9.60;;
77522;SDS011;66637;-29.628;-49.938;2024-01-15T11:00:43;63.33;;;7.25;;
77522;SDS011;66637;-29.628;-49.938;2024-01-15T11:03:14;40.65;;;5.53;;
77522;SDS011;66637;-29.628;-49.938;2024-01-15T11:05:45;45.50;;;5.95;;
77522;SDS011;66637;-29.628;-49.938;2024-01-15T11:08:17;39.83;;;5.63;;
77522;SDS011;66637;-29.628;-49.938;2024-01-15T11:10:48;42.83;;;5.00;;
77522;SDS011;66637;-29.628;-49.938;2024-01-15T11:16:01;59.30;;;7.05;;
77522;SDS011;66637;-29.628;-49.938;2024-01-15T11:21:27;49.90;;;5.85;;
77522;SDS011;66637;-29.628;-49.938;2024-01-15T11:24:00;42.67;;;5.45;;
77522;SDS011;66637;-29.628;-49.938;2024-01-15T11:32:06;60.65;;;8.05;;
77522;SDS011;66637;-29.628;-49.938;2024-01-15T11:34:52;60.25;;;8.05;;
77522;SDS011;66637;-29.628;-49.938;2024-01-15T11:40:21;35.58;;;4.10;;
77522;SDS011;66637;-29.628;-49.938;2024-01-15T11:43:05;35.53;;;4.35;;
77522;SDS011;66637;-29.628;-49.938;2024-01-15T11:45:39;27.88;;;3.50;;
77522;SDS011;66637;-29.628;-49.938;2024-01-15T11:48:11;23.48;;;3.58;;
77522;SDS011;66637;-29.628;-49.938;2024-01-15T11:50:48;33.75;;;4.47;;
77522;SDS011;66637;-29.628;-49.938;2024-01-15T11:53:32;37.85;;;5.05;;
77522;SDS011;66637;-29.628;-49.938;2024-01-15T11:56:11;24.92;;;4.20;;
77522;SDS011;66637;-29.628;-49.938;2024-01-15T11:58:45;24.52;;;3.42;;
77522;SDS011;66637;-29.628;-49.938;2024-01-15T12:01:17;31.23;;;4.28;;
77522;SDS011;66637;-29.628;-49.938;2024-01-15T12:03:49;26.15;;;4.18;;
77522;SDS011;66637;-29.628;-49.938;2024-01-15T12:06:22;27.10;;;3.20;;
77522;SDS011;66637;-29.628;-49.938;2024-01-15T12:09:05;33.13;;;4.80;;
77522;SDS011;66637;-29.628;-49.938;2024-01-15T12:11:36;33.78;;;3.40;;
77522;SDS011;66637;-29.628;-49.938;2024-01-15T12:14:13;23.45;;;3.58;;
77522;SDS011;66637;-29.628;-49.938;2024-01-15T12:16:43;39.42;;;4.57;;
77522;SDS011;66637;-29.628;-49.938;2024-01-15T12:19:15;18.88;;;3.13;;
77522;SDS011;66637;-29.628;-49.938;2024-01-15T12:21:46;33.97;;;4.20;;
77522;SDS011;66637;-29.628;-49.938;2024-01-15T12:24:17;19.30;;;3.28;;
77522;SDS011;66637;-29.628;-49.938;2024-01-15T12:26:48;20.98;;;3.20;;
77522;SDS011;66637;-29.628;-49.938;2024-01-15T12:29:22;16.95;;;2.95;;
77522;SDS011;66637;-29.628;-49.938;2024-01-15T12:32:02;25.88;;;4.18;;
77522;SDS011;66637;-29.628;-49.938;2024-01-15T12:34:48;36.35;;;4.40;;
77522;SDS011;66637;-29.628;-49.938;2024-01-15T12:37:21;21.30;;;2.75;;
77522;SDS011;66637;-29.628;-49.938;2024-01-15T12:39:51;23.38;;;3.42;;
77522;SDS011;66637;-29.628;-49.938;2024-01-15T12:42:24;19.45;;;3.92;;
77522;SDS011;66637;-29.628;-49.938;2024-01-15T12:44:57;26.13;;;3.53;;
77522;SDS011;66637;-29.628;-49.938;2024-01-15T12:47:28;25.10;;;3.08;;
77522;SDS011;66637;-29.628;-49.938;2024-01-15T12:49:59;27.10;;;4.35;;
77522;SDS011;66637;-29.628;-49.938;2024-01-15T12:52:43;50.83;;;6.45;;
77522;SDS011;66637;-29.628;-49.938;2024-01-15T12:55:14;34.80;;;4.43;;
77522;SDS011;66637;-29.628;-49.938;2024-01-15T12:57:46;27.63;;;3.85;;
77522;SDS011;66637;-29.628;-49.938;2024-01-15T13:00:20;41.80;;;6.13;;
77522;SDS011;66637;-29.628;-49.938;2024-01-15T13:02:52;30.75;;;4.82;;
77522;SDS011;66637;-29.628;-49.938;2024-01-15T13:05:24;36.35;;;4.50;;
77522;SDS011;66637;-29.628;-49.938;2024-01-15T13:07:59;45.10;;;5.75;;
77522;SDS011;66637;-29.628;-49.938;2024-01-15T13:10:29;27.50;;;3.90;;
77522;SDS011;66637;-29.628;-49.938;2024-01-15T13:13:00;20.17;;;3.40;;
77522;SDS011;66637;-29.628;-49.938;2024-01-15T13:15:32;21.92;;;3.90;;
77522;SDS011;66637;-29.628;-49.938;2024-01-15T13:18:02;27.35;;;4.35;;
77522;SDS011;66637;-29.628;-49.938;2024-01-15T13:20:34;27.50;;;4.47;;
77522;SDS011;66637;-29.628;-49.938;2024-01-15T13:23:04;26.55;;;4.57;;
77522;SDS011;66637;-29.628;-49.938;2024-01-15T13:25:34;19.98;;;3.00;;
77522;SDS011;66637;-29.628;-49.938;2024-01-15T13:28:08;21.33;;;3.00;;
77522;SDS011;66637;-29.628;-49.938;2024-01-15T13:30:39;19.75;;;2.88;;
77522;SDS011;66637;-29.628;-49.938;2024-01-15T13:33:11;25.75;;;4.43;;
77522;SDS011;66637;-29.628;-49.938;2024-01-15T13:35:42;16.35;;;2.92;;
77522;SDS011;66637;-29.628;-49.938;2024-01-15T13:38:13;18.80;;;2.60;;
77522;SDS011;66637;-29.628;-49.938;2024-01-15T13:40:45;42.78;;;4.85;;
77522;SDS011;66637;-29.628;-49.938;2024-01-15T13:43:16;19.33;;;3.05;;
77522;SDS011;66637;-29.628;-49.938;2024-01-15T13:45:47;18.08;;;2.78;;
77522;SDS011;66637;-29.628;-49.938;2024-01-15T13:48:21;36.13;;;4.53;;
77522;SDS011;66637;-29.628;-49.938;2024-01-15T13:50:52;19.05;;;3.17;;
77522;SDS011;66637;-29.628;-49.938;2024-01-15T13:53:25;18.88;;;3.38;;
77522;SDS011;66637;-29.628;-49.938;2024-01-15T13:55:56;20.00;;;3.58;;
77522;SDS011;66637;-29.628;-49.938;2024-01-15T13:58:28;25.13;;;3.22;;
77522;SDS011;66637;-29.628;-49.938;2024-01-15T14:00:59;28.42;;;4.22;;
77522;SDS011;66637;-29.628;-49.938;2024-01-15T14:03:31;15.73;;;3.13;;
77522;SDS011;66637;-29.628;-49.938;2024-01-15T14:06:02;17.70;;;3.33;;
77522;SDS011;66637;-29.628;-49.938;2024-01-15T14:08:38;21.02;;;2.63;;
77522;SDS011;66637;-29.628;-49.938;2024-01-15T14:11:08;21.40;;;3.03;;
77522;SDS011;66637;-29.628;-49.938;2024-01-15T14:13:40;35.72;;;4.47;;
77522;SDS011;66637;-29.628;-49.938;2024-01-15T14:16:10;20.85;;;3.13;;
77522;SDS011;66637;-29.628;-49.938;2024-01-15T14:18:41;15.35;;;2.95;;
77522;SDS011;66637;-29.628;-49.938;2024-01-15T14:21:11;15.60;;;2.65;;
77522;SDS011;66637;-29.628;-49.938;2024-01-15T14:23:42;26.58;;;4.18;;
77522;SDS011;66637;-29.628;-49.938;2024-01-15T14:26:12;16.95;;;3.05;;
77522;SDS011;66637;-29.628;-49.938;2024-01-15T14:28:44;17.75;;;2.90;;
77522;SDS011;66637;-29.628;-49.938;2024-01-15T14:31:19;16.48;;;2.60;;
77522;SDS011;66637;-29.628;-49.938;2024-01-15T14:33:50;24.27;;;4.00;;
77522;SDS011;66637;-29.628;-49.938;2024-01-15T14:36:21;17.13;;;2.95;;
77522;SDS011;66637;-29.628;-49.938;2024-01-15T14:38:51;20.90;;;3.33;;
77522;SDS011;66637;-29.628;-49.938;2024-01-15T14:41:23;35.40;;;5.20;;
77522;SDS011;66637;-29.628;-49.938;2024-01-15T14:43:53;19.17;;;2.60;;
77522;SDS011;66637;-29.628;-49.938;2024-01-15T14:46:25;28.50;;;3.15;;
77522;SDS011;66637;-29.628;-49.938;2024-01-15T14:48:56;16.27;;;2.60;;
77522;SDS011;66637;-29.628;-49.938;2024-01-15T14:51:28;11.70;;;2.30;;
77522;SDS011;66637;-29.628;-49.938;2024-01-15T14:54:00;18.02;;;2.95;;
77522;SDS011;66637;-29.628;-49.938;2024-01-15T14:56:31;12.50;;;2.83;;
77522;SDS011;66637;-29.628;-49.938;2024-01-15T14:59:03;7.78;;;1.83;;
77522;SDS011;66637;-29.628;-49.938;2024-01-15T15:01:34;21.65;;;4.10;;
77522;SDS011;66637;-29.628;-49.938;2024-01-15T15:04:05;22.70;;;2.75;;
77522;SDS011;66637;-29.628;-49.938;2024-01-15T15:06:36;16.10;;;2.50;;
77522;SDS011;66637;-29.628;-49.938;2024-01-15T15:09:07;25.75;;;2.50;;
77522;SDS011;66637;-29.628;-49.938;2024-01-15T15:11:41;17.65;;;2.72;;
77522;SDS011;66637;-29.628;-49.938;2024-01-15T15:14:11;17.17;;;2.22;;
77522;SDS011;66637;-29.628;-49.938;2024-01-15T15:16:41;22.63;;;2.92;;
77522;SDS011;66637;-29.628;-49.938;2024-01-15T15:19:11;26.55;;;3.53;;
77522;SDS011;66637;-29.628;-49.938;2024-01-15T15:21:42;30.48;;;3.60;;
77522;SDS011;66637;-29.628;-49.938;2024-01-15T15:24:12;15.30;;;2.47;;
77522;SDS011;66637;-29.628;-49.938;2024-01-15T15:26:42;23.17;;;2.97;;
77522;SDS011;66637;-29.628;-49.938;2024-01-15T15:29:13;8.73;;;1.80;;
77522;SDS011;66637;-29.628;-49.938;2024-01-15T15:31:46;13.05;;;2.30;;